sensor_id;sensor_type;location;lat;lon;timestamp;P1;durP1;ratioP1;P2;durP2;ratioP2
44430;SDS011;30135;47.866;-4.222;2023-02-15T00:02:16;28.75;;;5.75;;
44430;SDS011;30135;47.866;-4.222;2023-02-15T00:04:44;22.45;;;4.90;;
44430;SDS011;30135;47.866;-4.222;2023-02-15T00:07:14;13.50;;;4.78;;
44430;SDS011;30135;47.866;-4.222;2023-02-15T00:09:44;18.47;;;4.57;;
44430;SDS011;30135;47.866;-4.222;2023-02-15T00:12:14;15.00;;;4.65;;
44430;SDS011;30135;47.866;-4.222;2023-02-15T00:14:41;17.65;;;5.18;;
44430;SDS011;30135;47.866;-4.222;2023-02-15T00:17:07;16.95;;;5.80;;
44430;SDS011;30135;47.866;-4.222;2023-02-15T00:19:36;18.17;;;5.05;;
44430;SDS011;30135;47.866;-4.222;2023-02-15T00:22:02;16.02;;;5.25;;
44430;SDS011;30135;47.866;-4.222;2023-02-15T00:24:28;13.05;;;4.53;;
44430;SDS011;30135;47.866;-4.222;2023-02-15T00:26:54;13.77;;;5.10;;
44430;SDS011;30135;47.866;-4.222;2023-02-15T00:29:20;11.13;;;5.07;;
44430;SDS011;30135;47.866;-4.222;2023-02-15T00:31:46;10.23;;;4.38;;
44430;SDS011;30135;47.866;-4.222;2023-02-15T00:34:14;17.35;;;4.72;;
44430;SDS011;30135;47.866;-4.222;2023-02-15T00:36:46;11.63;;;6.25;;
44430;SDS011;30135;47.866;-4.222;2023-02-15T00:39:12;16.00;;;5.38;;
44430;SDS011;30135;47.866;-4.222;2023-02-15T00:41:39;18.30;;;4.97;;
44430;SDS011;30135;47.866;-4.222;2023-02-15T00:44:05;13.18;;;5.85;;
44430;SDS011;30135;47.866;-4.222;2023-02-15T00:46:32;16.05;;;5.80;;
44430;SDS011;30135;47.866;-4.222;2023-02-15T00:48:58;24.15;;;6.78;;
44430;SDS011;30135;47.866;-4.222;2023-02-15T00:51:24;18.17;;;6.78;;
44430;SDS011;30135;47.866;-4.222;2023-02-15T00:53:51;21.77;;;6.55;;
44430;SDS011;30135;47.866;-4.222;2023-02-15T00:56:17;21.38;;;7.32;;
44430;SDS011;30135;47.866;-4.222;2023-02-15T00:58:43;23.42;;;7.53;;
44430;SDS011;30135;47.866;-4.222;2023-02-15T01:01:10;21.27;;;6.90;;
44430;SDS011;30135;47.866;-4.222;2023-02-15T01:03:42;21.85;;;6.68;;
44430;SDS011;30135;47.866;-4.222;2023-02-15T01:06:08;19.52;;;7.55;;
44430;SDS011;30135;47.866;-4.222;2023-02-15T01:08:35;20.80;;;7.95;;
44430;SDS011;30135;47.866;-4.222;2023-02-15T01:11:03;24.48;;;8.45;;
44430;SDS011;30135;47.866;-4.222;2023-02-15T01:13:35;15.95;;;7.88;;
44430;SDS011;30135;47.866;-4.222;2023-02-15T01:16:02;26.58;;;8.23;;
44430;SDS011;30135;47.866;-4.222;2023-02-15T01:18:28;20.73;;;7.38;;
44430;SDS011;30135;47.866;-4.222;2023-02-15T01:20:55;22.38;;;7.95;;
44430;SDS011;30135;47.866;-4.222;2023-02-15T01:23:21;23.02;;;8.82;;
44430;SDS011;30135;47.866;-4.222;2023-02-15T01:25:47;18.23;;;8.18;;
44430;SDS011;30135;47.866;-4.222;2023-02-15T01:28:13;18.05;;;7.13;;
44430;SDS011;30135;47.866;-4.222;2023-02-15T01:30:39;23.60;;;8.98;;
44430;SDS011;30135;47.866;-4.222;2023-02-15T01:33:06;18.00;;;8.50;;
44430;SDS011;30135;47.866;-4.222;2023-02-15T01:35:33;21.55;;;8.32;;
44430;SDS011;30135;47.866;-4.222;2023-02-15T01:38:02;22.10;;;7.90;;
44430;SDS011;30135;47.866;-4.222;2023-02-15T01:40:28;24.65;;;9.60;;
44430;SDS011;30135;47.866;-4.222;2023-02-15T01:42:54;24.15;;;8.68;;
44430;SDS011;30135;47.866;-4.222;2023-02-15T01:45:28;31.23;;;10.05;;
44430;SDS011;30135;47.866;-4.222;2023-02-15T01:50:38;24.75;;;9.70;;
44430;SDS011;30135;47.866;-4.222;2023-02-15T01:55:57;28.52;;;9.80;;
44430;SDS011;30135;47.866;-4.222;2023-02-15T01:58:27;28.27;;;9.90;;
44430;SDS011;30135;47.866;-4.222;2023-02-15T02:00:55;21.42;;;9.85;;
44430;SDS011;30135;47.866;-4.222;2023-02-15T02:03:31;24.35;;;9.82;;
44430;SDS011;30135;47.866;-4.222;2023-02-15T02:06:43;19.30;;;8.55;;
44430;SDS011;30135;47.866;-4.222;2023-02-15T02:09:12;23.90;;;9.02;;
44430;SDS011;30135;47.866;-4.222;2023-02-15T02:11:39;28.15;;;10.43;;
44430;SDS011;30135;47.866;-4.222;2023-02-15T02:14:06;22.52;;;9.70;;
44430;SDS011;30135;47.866;-4.222;2023-02-15T02:19:31;23.10;;;8.25;;
44430;SDS011;30135;47.866;-4.222;2023-02-15T02:40:22;23.00;;;8.82;;
44430;SDS011;30135;47.866;-4.222;2023-02-15T02:45:56;35.58;;;9.40;;
44430;SDS011;30135;47.866;-4.222;2023-02-15T02:48:30;25.38;;;10.15;;
44430;SDS011;30135;47.866;-4.222;2023-02-15T02:50:58;18.40;;;8.38;;
44430;SDS011;30135;47.866;-4.222;2023-02-15T02:53:24;20.15;;;8.95;;
44430;SDS011;30135;47.866;-4.222;2023-02-15T02:55:54;19.50;;;9.35;;
44430;SDS011;30135;47.866;-4.222;2023-02-15T02:59:06;25.15;;;8.93;;
44430;SDS011;30135;47.866;-4.222;2023-02-15T03:02:16;26.55;;;9.15;;
44430;SDS011;30135;47.866;-4.222;2023-02-15T03:04:45;24.10;;;8.93;;
44430;SDS011;30135;47.866;-4.222;2023-02-15T03:07:23;32.33;;;10.65;;
44430;SDS011;30135;47.866;-4.222;2023-02-15T03:09:53;19.70;;;8.70;;
44430;SDS011;30135;47.866;-4.222;2023-02-15T03:15:18;16.73;;;7.63;;
44430;SDS011;30135;47.866;-4.222;2023-02-15T03:18:00;19.70;;;8.48;;
44430;SDS011;30135;47.866;-4.222;2023-02-15T03:20:29;18.52;;;7.53;;
44430;SDS011;30135;47.866;-4.222;2023-02-15T03:23:01;24.80;;;9.63;;
44430;SDS011;30135;47.866;-4.222;2023-02-15T03:25:50;21.13;;;8.35;;
44430;SDS011;30135;47.866;-4.222;2023-02-15T03:28:31;21.15;;;8.80;;
44430;SDS011;30135;47.866;-4.222;2023-02-15T03:31:08;17.65;;;8.18;;
44430;SDS011;30135;47.866;-4.222;2023-02-15T03:33:38;19.85;;;8.77;;
44430;SDS011;30135;47.866;-4.222;2023-02-15T03:39:19;22.95;;;8.80;;
44430;SDS011;30135;47.866;-4.222;2023-02-15T03:42:13;18.27;;;8.57;;
44430;SDS011;30135;47.866;-4.222;2023-02-15T03:44:58;38.22;;;8.45;;
44430;SDS011;30135;47.866;-4.222;2023-02-15T03:47:36;18.25;;;8.50;;
44430;SDS011;30135;47.866;-4.222;2023-02-15T03:50:14;21.13;;;8.73;;
44430;SDS011;30135;47.866;-4.222;2023-02-15T03:53:26;23.80;;;7.82;;
44430;SDS011;30135;47.866;-4.222;2023-02-15T03:55:53;24.38;;;7.65;;
44430;SDS011;30135;47.866;-4.222;2023-02-15T03:58:20;20.50;;;8.18;;
44430;SDS011;30135;47.866;-4.222;2023-02-15T04:01:10;14.93;;;8.35;;
44430;SDS011;30135;47.866;-4.222;2023-02-15T04:04:25;17.13;;;7.18;;
44430;SDS011;30135;47.866;-4.222;2023-02-15T04:06:52;23.80;;;9.10;;
44430;SDS011;30135;47.866;-4.222;2023-02-15T04:09:21;21.42;;;8.05;;
44430;SDS011;30135;47.866;-4.222;2023-02-15T04:12:05;29.15;;;9.35;;
44430;SDS011;30135;47.866;-4.222;2023-02-15T04:14:31;20.08;;;7.47;;
44430;SDS011;30135;47.866;-4.222;2023-02-15T04:17:20;20.35;;;8.75;;
44430;SDS011;30135;47.866;-4.222;2023-02-15T04:19:47;21.10;;;8.70;;
44430;SDS011;30135;47.866;-4.222;2023-02-15T04:22:31;18.95;;;8.15;;
44430;SDS011;30135;47.866;-4.222;2023-02-15T04:25:16;21.08;;;8.32;;
44430;SDS011;30135;47.866;-4.222;2023-02-15T04:27:43;19.75;;;8.65;;
44430;SDS011;30135;47.866;-4.222;2023-02-15T04:30:13;24.30;;;8.77;;
44430;SDS011;30135;47.866;-4.222;2023-02-15T04:32:41;24.70;;;10.77;;
44430;SDS011;30135;47.866;-4.222;2023-02-15T04:35:07;25.85;;;8.85;;
44430;SDS011;30135;47.866;-4.222;2023-02-15T04:37:34;16.42;;;8.77;;
44430;SDS011;30135;47.866;-4.222;2023-02-15T04:40:00;19.25;;;8.07;;
44430;SDS011;30135;47.866;-4.222;2023-02-15T04:42:27;17.35;;;8.45;;
44430;SDS011;30135;47.866;-4.222;2023-02-15T04:44:53;19.85;;;7.93;;
44430;SDS011;30135;47.866;-4.222;2023-02-15T04:47:20;25.42;;;8.45;;
44430;SDS011;30135;47.866;-4.222;2023-02-15T04:49:46;17.17;;;6.50;;
44430;SDS011;30135;47.866;-4.222;2023-02-15T04:52:18;15.48;;;6.90;;
44430;SDS011;30135;47.866;-4.222;2023-02-15T04:54:44;18.88;;;7.95;;
44430;SDS011;30135;47.866;-4.222;2023-02-15T04:57:11;20.40;;;8.60;;
44430;SDS011;30135;47.866;-4.222;2023-02-15T04:59:37;21.92;;;8.15;;
44430;SDS011;30135;47.866;-4.222;2023-02-15T05:02:03;15.73;;;7.68;;
44430;SDS011;30135;47.866;-4.222;2023-02-15T05:04:29;18.65;;;8.27;;
44430;SDS011;30135;47.866;-4.222;2023-02-15T05:06:56;17.33;;;8.23;;
44430;SDS011;30135;47.866;-4.222;2023-02-15T05:09:22;17.73;;;7.72;;
44430;SDS011;30135;47.866;-4.222;2023-02-15T05:11:48;16.23;;;8.10;;
44430;SDS011;30135;47.866;-4.222;2023-02-15T05:14:14;17.17;;;7.95;;
44430;SDS011;30135;47.866;-4.222;2023-02-15T05:16:40;18.95;;;7.13;;
44430;SDS011;30135;47.866;-4.222;2023-02-15T05:19:06;21.90;;;8.98;;
44430;SDS011;30135;47.866;-4.222;2023-02-15T05:21:32;15.02;;;7.60;;
44430;SDS011;30135;47.866;-4.222;2023-02-15T05:23:58;20.90;;;8.32;;
44430;SDS011;30135;47.866;-4.222;2023-02-15T05:26:24;29.38;;;7.90;;
44430;SDS011;30135;47.866;-4.222;2023-02-15T05:29:09;20.70;;;8.65;;
44430;SDS011;30135;47.866;-4.222;2023-02-15T05:31:36;15.65;;;7.97;;
44430;SDS011;30135;47.866;-4.222;2023-02-15T05:34:03;14.68;;;7.85;;
44430;SDS011;30135;47.866;-4.222;2023-02-15T05:36:29;15.02;;;8.07;;
44430;SDS011;30135;47.866;-4.222;2023-02-15T05:38:55;23.05;;;8.48;;
44430;SDS011;30135;47.866;-4.222;2023-02-15T05:41:21;20.70;;;8.05;;
44430;SDS011;30135;47.866;-4.222;2023-02-15T05:43:47;20.60;;;8.52;;
44430;SDS011;30135;47.866;-4.222;2023-02-15T05:46:13;13.02;;;7.13;;
44430;SDS011;30135;47.866;-4.222;2023-02-15T05:48:39;17.33;;;7.35;;
44430;SDS011;30135;47.866;-4.222;2023-02-15T05:51:09;14.60;;;8.00;;
44430;SDS011;30135;47.866;-4.222;2023-02-15T05:53:41;14.95;;;6.38;;
44430;SDS011;30135;47.866;-4.222;2023-02-15T05:56:08;17.15;;;8.30;;
44430;SDS011;30135;47.866;-4.222;2023-02-15T05:58:37;17.15;;;7.03;;
44430;SDS011;30135;47.866;-4.222;2023-02-15T06:03:39;20.85;;;6.43;;
44430;SDS011;30135;47.866;-4.222;2023-02-15T06:06:06;13.85;;;7.25;;
44430;SDS011;30135;47.866;-4.222;2023-02-15T06:08:33;19.40;;;7.05;;
44430;SDS011;30135;47.866;-4.222;2023-02-15T06:11:01;14.98;;;7.45;;
44430;SDS011;30135;47.866;-4.222;2023-02-15T06:13:27;18.05;;;7.22;;
44430;SDS011;30135;47.866;-4.222;2023-02-15T06:15:54;9.88;;;6.07;;
44430;SDS011;30135;47.866;-4.222;2023-02-15T06:18:20;17.02;;;7.47;;
44430;SDS011;30135;47.866;-4.222;2023-02-15T06:20:46;13.43;;;7.00;;
44430;SDS011;30135;47.866;-4.222;2023-02-15T06:23:12;14.70;;;6.93;;
44430;SDS011;30135;47.866;-4.222;2023-02-15T06:25:39;11.38;;;6.55;;
44430;SDS011;30135;47.866;-4.222;2023-02-15T06:28:05;10.93;;;6.07;;
44430;SDS011;30135;47.866;-4.222;2023-02-15T06:30:31;11.65;;;6.60;;
44430;SDS011;30135;47.866;-4.222;2023-02-15T06:32:57;13.35;;;6.60;;
44430;SDS011;30135;47.866;-4.222;2023-02-15T06:35:23;10.68;;;7.13;;
44430;SDS011;30135;47.866;-4.222;2023-02-15T06:37:50;17.50;;;7.25;;
44430;SDS011;30135;47.866;-4.222;2023-02-15T06:40:16;12.35;;;7.30;;
44430;SDS011;30135;47.866;-4.222;2023-02-15T06:42:42;17.35;;;6.97;;
44430;SDS011;30135;47.866;-4.222;2023-02-15T06:45:08;19.85;;;7.40;;
44430;SDS011;30135;47.866;-4.222;2023-02-15T06:47:35;15.85;;;6.63;;
44430;SDS011;30135;47.866;-4.222;2023-02-15T06:50:02;16.02;;;7.60;;
44430;SDS011;30135;47.866;-4.222;2023-02-15T06:52:31;16.42;;;7.07;;
44430;SDS011;30135;47.866;-4.222;2023-02-15T06:54:57;16.15;;;6.85;;
44430;SDS011;30135;47.866;-4.222;2023-02-15T06:57:23;10.25;;;5.85;;
44430;SDS011;30135;47.866;-4.222;2023-02-15T06:59:49;15.38;;;7.65;;
44430;SDS011;30135;47.866;-4.222;2023-02-15T07:02:17;18.45;;;7.22;;
44430;SDS011;30135;47.866;-4.222;2023-02-15T07:04:43;17.00;;;7.97;;
44430;SDS011;30135;47.866;-4.222;2023-02-15T07:07:09;17.75;;;8.05;;
44430;SDS011;30135;47.866;-4.222;2023-02-15T07:09:36;12.30;;;6.82;;
44430;SDS011;30135;47.866;-4.222;2023-02-15T07:12:03;17.23;;;6.65;;
44430;SDS011;30135;47.866;-4.222;2023-02-15T07:14:49;11.63;;;5.32;;
44430;SDS011;30135;47.866;-4.222;2023-02-15T07:17:15;18.80;;;6.25;;
44430;SDS011;30135;47.866;-4.222;2023-02-15T07:19:42;11.75;;;6.28;;
44430;SDS011;30135;47.866;-4.222;2023-02-15T07:22:08;10.88;;;5.90;;
44430;SDS011;30135;47.866;-4.222;2023-02-15T07:24:34;16.30;;;7.03;;
44430;SDS011;30135;47.866;-4.222;2023-02-15T07:27:00;16.98;;;6.72;;
44430;SDS011;30135;47.866;-4.222;2023-02-15T07:29:26;17.35;;;6.63;;
44430;SDS011;30135;47.866;-4.222;2023-02-15T07:31:52;11.55;;;6.35;;
44430;SDS011;30135;47.866;-4.222;2023-02-15T07:34:20;17.45;;;7.68;;
44430;SDS011;30135;47.866;-4.222;2023-02-15T07:36:46;13.63;;;6.47;;
44430;SDS011;30135;47.866;-4.222;2023-02-15T07:39:12;18.65;;;7.70;;
44430;SDS011;30135;47.866;-4.222;2023-02-15T07:41:38;15.00;;;7.63;;
44430;SDS011;30135;47.866;-4.222;2023-02-15T07:44:04;18.50;;;6.95;;
44430;SDS011;30135;47.866;-4.222;2023-02-15T07:46:30;15.90;;;6.90;;
44430;SDS011;30135;47.866;-4.222;2023-02-15T07:48:55;16.13;;;7.32;;
44430;SDS011;30135;47.866;-4.222;2023-02-15T07:51:21;17.73;;;7.70;;
44430;SDS011;30135;47.866;-4.222;2023-02-15T07:53:47;13.07;;;7.47;;
44430;SDS011;30135;47.866;-4.222;2023-02-15T07:56:14;14.93;;;6.93;;
44430;SDS011;30135;47.866;-4.222;2023-02-15T07:58:40;17.38;;;7.65;;
44430;SDS011;30135;47.866;-4.222;2023-02-15T08:01:16;18.00;;;8.70;;
44430;SDS011;30135;47.866;-4.222;2023-02-15T08:03:50;16.45;;;8.82;;
44430;SDS011;30135;47.866;-4.222;2023-02-15T08:06:18;17.92;;;8.57;;
44430;SDS011;30135;47.866;-4.222;2023-02-15T08:08:45;16.60;;;8.88;;
44430;SDS011;30135;47.866;-4.222;2023-02-15T08:13:56;17.20;;;8.05;;
44430;SDS011;30135;47.866;-4.222;2023-02-15T08:16:40;17.92;;;8.50;;
44430;SDS011;30135;47.866;-4.222;2023-02-15T08:19:13;20.15;;;8.80;;
44430;SDS011;30135;47.866;-4.222;2023-02-15T08:21:53;22.63;;;9.40;;
44430;SDS011;30135;47.866;-4.222;2023-02-15T08:24:24;23.65;;;9.60;;
44430;SDS011;30135;47.866;-4.222;2023-02-15T08:26:56;20.13;;;9.05;;
44430;SDS011;30135;47.866;-4.222;2023-02-15T08:29:27;23.23;;;9.57;;
44430;SDS011;30135;47.866;-4.222;2023-02-15T08:31:55;21.98;;;8.85;;
44430;SDS011;30135;47.866;-4.222;2023-02-15T08:34:37;20.50;;;9.18;;
44430;SDS011;30135;47.866;-4.222;2023-02-15T08:37:05;18.17;;;10.05;;
44430;SDS011;30135;47.866;-4.222;2023-02-15T08:39:31;27.65;;;9.15;;
44430;SDS011;30135;47.866;-4.222;2023-02-15T08:41:58;17.20;;;8.07;;
44430;SDS011;30135;47.866;-4.222;2023-02-15T08:44:24;19.83;;;9.60;;
44430;SDS011;30135;47.866;-4.222;2023-02-15T08:46:50;19.50;;;9.15;;
44430;SDS011;30135;47.866;-4.222;2023-02-15T08:49:17;17.55;;;8.60;;
44430;SDS011;30135;47.866;-4.222;2023-02-15T08:51:46;23.48;;;10.15;;
44430;SDS011;30135;47.866;-4.222;2023-02-15T08:54:14;20.60;;;9.80;;
44430;SDS011;30135;47.866;-4.222;2023-02-15T08:56:44;25.08;;;10.07;;
44430;SDS011;30135;47.866;-4.222;2023-02-15T08:59:12;18.20;;;8.88;;
44430;SDS011;30135;47.866;-4.222;2023-02-15T09:01:42;18.58;;;8.50;;
44430;SDS011;30135;47.866;-4.222;2023-02-15T09:04:08;19.05;;;9.70;;
44430;SDS011;30135;47.866;-4.222;2023-02-15T09:06:36;19.15;;;8.60;;
44430;SDS011;30135;47.866;-4.222;2023-02-15T09:09:03;25.08;;;9.63;;
44430;SDS011;30135;47.866;-4.222;2023-02-15T09:11:32;18.42;;;9.93;;
44430;SDS011;30135;47.866;-4.222;2023-02-15T09:14:08;22.65;;;9.52;;
44430;SDS011;30135;47.866;-4.222;2023-02-15T09:16:43;26.25;;;10.57;;
44430;SDS011;30135;47.866;-4.222;2023-02-15T09:19:15;21.80;;;9.98;;
44430;SDS011;30135;47.866;-4.222;2023-02-15T09:21:43;23.90;;;11.50;;
44430;SDS011;30135;47.866;-4.222;2023-02-15T09:24:10;20.13;;;9.05;;
44430;SDS011;30135;47.866;-4.222;2023-02-15T09:26:39;23.27;;;9.73;;
44430;SDS011;30135;47.866;-4.222;2023-02-15T09:29:08;18.00;;;10.52;;
44430;SDS011;30135;47.866;-4.222;2023-02-15T09:31:38;24.92;;;10.80;;
44430;SDS011;30135;47.866;-4.222;2023-02-15T09:34:10;26.85;;;10.50;;
44430;SDS011;30135;47.866;-4.222;2023-02-15T10:10:34;29.40;;;12.60;;
44430;SDS011;30135;47.866;-4.222;2023-02-15T10:13:33;31.77;;;12.05;;
44430;SDS011;30135;47.866;-4.222;2023-02-15T10:16:30;23.40;;;11.27;;
44430;SDS011;30135;47.866;-4.222;2023-02-15T10:25:19;22.90;;;11.98;;
44430;SDS011;30135;47.866;-4.222;2023-02-15T10:32:13;26.27;;;11.88;;
44430;SDS011;30135;47.866;-4.222;2023-02-15T10:34:18;27.80;;;11.45;;
44430;SDS011;30135;47.866;-4.222;2023-02-15T10:51:05;40.05;;;13.50;;
44430;SDS011;30135;47.866;-4.222;2023-02-15T10:57:03;28.80;;;12.48;;
44430;SDS011;30135;47.866;-4.222;2023-02-15T11:02:55;34.78;;;12.48;;
44430;SDS011;30135;47.866;-4.222;2023-02-15T11:08:22;24.90;;;11.75;;
44430;SDS011;30135;47.866;-4.222;2023-02-15T11:10:56;27.70;;;11.13;;
44430;SDS011;30135;47.866;-4.222;2023-02-15T11:13:32;33.88;;;12.80;;
44430;SDS011;30135;47.866;-4.222;2023-02-15T11:16:05;24.00;;;11.80;;
44430;SDS011;30135;47.866;-4.222;2023-02-15T11:19:06;30.63;;;12.52;;
44430;SDS011;30135;47.866;-4.222;2023-02-15T11:21:42;31.88;;;12.23;;
44430;SDS011;30135;47.866;-4.222;2023-02-15T11:24:13;25.13;;;11.38;;
44430;SDS011;30135;47.866;-4.222;2023-02-15T11:26:57;35.40;;;14.05;;
44430;SDS011;30135;47.866;-4.222;2023-02-15T11:29:53;22.85;;;11.73;;
44430;SDS011;30135;47.866;-4.222;2023-02-15T11:32:37;30.77;;;11.63;;
44430;SDS011;30135;47.866;-4.222;2023-02-15T11:37:53;28.77;;;12.48;;
44430;SDS011;30135;47.866;-4.222;2023-02-15T11:40:51;28.05;;;13.80;;
44430;SDS011;30135;47.866;-4.222;2023-02-15T11:46:00;24.70;;;11.10;;
44430;SDS011;30135;47.866;-4.222;2023-02-15T11:48:27;34.05;;;12.13;;
44430;SDS011;30135;47.866;-4.222;2023-02-15T11:50:56;27.90;;;13.20;;
44430;SDS011;30135;47.866;-4.222;2023-02-15T11:53:23;24.98;;;10.57;;
44430;SDS011;30135;47.866;-4.222;2023-02-15T11:55:53;30.42;;;12.70;;
44430;SDS011;30135;47.866;-4.222;2023-02-15T12:00:55;29.95;;;12.40;;
44430;SDS011;30135;47.866;-4.222;2023-02-15T12:03:46;27.50;;;13.02;;
44430;SDS011;30135;47.866;-4.222;2023-02-15T12:06:20;31.40;;;13.10;;
44430;SDS011;30135;47.866;-4.222;2023-02-15T12:11:51;28.42;;;12.48;;
44430;SDS011;30135;47.866;-4.222;2023-02-15T12:14:17;34.92;;;13.18;;
44430;SDS011;30135;47.866;-4.222;2023-02-15T12:16:44;34.97;;;13.27;;
44430;SDS011;30135;47.866;-4.222;2023-02-15T12:21:54;27.65;;;11.82;;
44430;SDS011;30135;47.866;-4.222;2023-02-15T12:24:22;26.10;;;12.18;;
44430;SDS011;30135;47.866;-4.222;2023-02-15T12:27:21;74.38;;;15.07;;
44430;SDS011;30135;47.866;-4.222;2023-02-15T12:29:56;33.80;;;13.35;;
44430;SDS011;30135;47.866;-4.222;2023-02-15T12:32:57;36.38;;;13.13;;
44430;SDS011;30135;47.866;-4.222;2023-02-15T12:35:29;28.50;;;12.80;;
44430;SDS011;30135;47.866;-4.222;2023-02-15T12:38:09;28.60;;;12.60;;
44430;SDS011;30135;47.866;-4.222;2023-02-15T12:40:57;35.88;;;12.52;;
44430;SDS011;30135;47.866;-4.222;2023-02-15T12:44:35;31.92;;;13.35;;
44430;SDS011;30135;47.866;-4.222;2023-02-15T12:46:56;37.85;;;12.80;;
44430;SDS011;30135;47.866;-4.222;2023-02-15T12:49:33;28.55;;;12.10;;
44430;SDS011;30135;47.866;-4.222;2023-02-15T12:52:05;33.72;;;11.95;;
44430;SDS011;30135;47.866;-4.222;2023-02-15T12:54:49;31.20;;;13.43;;
44430;SDS011;30135;47.866;-4.222;2023-02-15T13:00:05;29.63;;;11.35;;
44430;SDS011;30135;47.866;-4.222;2023-02-15T13:02:51;26.10;;;12.57;;
44430;SDS011;30135;47.866;-4.222;2023-02-15T13:05:26;31.35;;;11.25;;
44430;SDS011;30135;47.866;-4.222;2023-02-15T13:08:09;32.15;;;12.00;;
44430;SDS011;30135;47.866;-4.222;2023-02-15T13:11:05;40.80;;;12.07;;
44430;SDS011;30135;47.866;-4.222;2023-02-15T13:14:37;29.90;;;11.30;;
44430;SDS011;30135;47.866;-4.222;2023-02-15T13:16:44;22.50;;;10.43;;
44430;SDS011;30135;47.866;-4.222;2023-02-15T13:19:16;31.25;;;8.95;;
44430;SDS011;30135;47.866;-4.222;2023-02-15T13:21:48;34.08;;;12.00;;
44430;SDS011;30135;47.866;-4.222;2023-02-15T13:24:33;27.88;;;9.50;;
44430;SDS011;30135;47.866;-4.222;2023-02-15T13:27:37;29.02;;;9.82;;
44430;SDS011;30135;47.866;-4.222;2023-02-15T13:41:33;23.58;;;9.18;;
44430;SDS011;30135;47.866;-4.222;2023-02-15T13:44:16;21.10;;;8.95;;
44430;SDS011;30135;47.866;-4.222;2023-02-15T13:47:17;27.35;;;9.30;;
44430;SDS011;30135;47.866;-4.222;2023-02-15T13:53:25;23.92;;;8.15;;
44430;SDS011;30135;47.866;-4.222;2023-02-15T14:07:30;20.85;;;9.07;;
44430;SDS011;30135;47.866;-4.222;2023-02-15T14:15:44;22.23;;;7.90;;
44430;SDS011;30135;47.866;-4.222;2023-02-15T14:21:14;28.77;;;8.30;;
44430;SDS011;30135;47.866;-4.222;2023-02-15T14:23:52;22.73;;;8.32;;
44430;SDS011;30135;47.866;-4.222;2023-02-15T14:32:14;22.45;;;7.85;;
44430;SDS011;30135;47.866;-4.222;2023-02-15T14:34:58;27.42;;;9.48;;
44430;SDS011;30135;47.866;-4.222;2023-02-15T14:37:29;23.63;;;9.43;;
44430;SDS011;30135;47.866;-4.222;2023-02-15T14:46:07;25.45;;;7.57;;
44430;SDS011;30135;47.866;-4.222;2023-02-15T14:49:03;12.77;;;5.28;;
44430;SDS011;30135;47.866;-4.222;2023-02-15T14:56:47;12.82;;;5.95;;
44430;SDS011;30135;47.866;-4.222;2023-02-15T15:07:45;26.42;;;5.55;;
44430;SDS011;30135;47.866;-4.222;2023-02-15T15:12:49;19.80;;;6.75;;
44430;SDS011;30135;47.866;-4.222;2023-02-15T15:20:43;11.82;;;5.85;;
44430;SDS011;30135;47.866;-4.222;2023-02-15T15:48:43;16.25;;;4.28;;
44430;SDS011;30135;47.866;-4.222;2023-02-15T15:51:14;13.23;;;4.07;;
44430;SDS011;30135;47.866;-4.222;2023-02-15T15:53:47;12.05;;;3.85;;
44430;SDS011;30135;47.866;-4.222;2023-02-15T15:56:19;10.27;;;3.00;;
44430;SDS011;30135;47.866;-4.222;2023-02-15T15:59:03;12.10;;;5.18;;
44430;SDS011;30135;47.866;-4.222;2023-02-15T16:01:38;11.82;;;3.05;;
44430;SDS011;30135;47.866;-4.222;2023-02-15T16:04:11;8.85;;;3.80;;
44430;SDS011;30135;47.866;-4.222;2023-02-15T16:06:48;14.15;;;3.50;;
44430;SDS011;30135;47.866;-4.222;2023-02-15T16:09:21;11.73;;;4.35;;
44430;SDS011;30135;47.866;-4.222;2023-02-15T16:11:51;8.48;;;3.42;;
44430;SDS011;30135;47.866;-4.222;2023-02-15T16:14:30;5.80;;;3.03;;
44430;SDS011;30135;47.866;-4.222;2023-02-15T16:16:58;18.35;;;4.03;;
44430;SDS011;30135;47.866;-4.222;2023-02-15T16:19:28;10.23;;;3.67;;
44430;SDS011;30135;47.866;-4.222;2023-02-15T16:21:59;9.93;;;3.17;;
44430;SDS011;30135;47.866;-4.222;2023-02-15T16:24:45;12.02;;;2.63;;
44430;SDS011;30135;47.866;-4.222;2023-02-15T16:27:27;7.63;;;2.40;;
44430;SDS011;30135;47.866;-4.222;2023-02-15T16:30:17;10.68;;;3.17;;
44430;SDS011;30135;47.866;-4.222;2023-02-15T16:33:11;11.35;;;3.15;;
44430;SDS011;30135;47.866;-4.222;2023-02-15T16:35:58;11.80;;;3.45;;
44430;SDS011;30135;47.866;-4.222;2023-02-15T16:41:09;16.92;;;4.35;;
44430;SDS011;30135;47.866;-4.222;2023-02-15T16:43:39;7.18;;;2.63;;
44430;SDS011;30135;47.866;-4.222;2023-02-15T16:46:11;12.17;;;2.57;;
44430;SDS011;30135;47.866;-4.222;2023-02-15T16:49:07;5.55;;;2.72;;
44430;SDS011;30135;47.866;-4.222;2023-02-15T16:51:53;13.18;;;3.55;;
44430;SDS011;30135;47.866;-4.222;2023-02-15T16:54:31;16.70;;;4.40;;
44430;SDS011;30135;47.866;-4.222;2023-02-15T16:56:58;10.27;;;3.90;;
44430;SDS011;30135;47.866;-4.222;2023-02-15T17:02:11;9.52;;;3.58;;
44430;SDS011;30135;47.866;-4.222;2023-02-15T17:04:46;10.45;;;3.72;;
44430;SDS011;30135;47.866;-4.222;2023-02-15T17:07:41;9.40;;;3.55;;
44430;SDS011;30135;47.866;-4.222;2023-02-15T17:10:38;7.60;;;3.40;;
44430;SDS011;30135;47.866;-4.222;2023-02-15T17:18:24;7.40;;;3.53;;
44430;SDS011;30135;47.866;-4.222;2023-02-15T17:21:00;13.93;;;4.57;;
44430;SDS011;30135;47.866;-4.222;2023-02-15T17:23:44;10.45;;;4.03;;
44430;SDS011;30135;47.866;-4.222;2023-02-15T17:26:14;10.48;;;4.68;;
44430;SDS011;30135;47.866;-4.222;2023-02-15T17:28:50;13.85;;;5.72;;
44430;SDS011;30135;47.866;-4.222;2023-02-15T17:31:24;16.13;;;4.80;;
44430;SDS011;30135;47.866;-4.222;2023-02-15T17:33:56;16.30;;;4.25;;
44430;SDS011;30135;47.866;-4.222;2023-02-15T17:36:25;8.85;;;3.90;;
44430;SDS011;30135;47.866;-4.222;2023-02-15T17:41:28;11.65;;;4.32;;
44430;SDS011;30135;47.866;-4.222;2023-02-15T17:43:56;13.70;;;5.18;;
44430;SDS011;30135;47.866;-4.222;2023-02-15T17:46:23;11.32;;;4.80;;
44430;SDS011;30135;47.866;-4.222;2023-02-15T17:48:51;14.30;;;4.50;;
44430;SDS011;30135;47.866;-4.222;2023-02-15T17:51:20;15.02;;;4.88;;
44430;SDS011;30135;47.866;-4.222;2023-02-15T17:53:47;14.48;;;5.03;;
44430;SDS011;30135;47.866;-4.222;2023-02-15T17:56:32;11.77;;;5.70;;
44430;SDS011;30135;47.866;-4.222;2023-02-15T17:58:58;15.30;;;5.07;;
44430;SDS011;30135;47.866;-4.222;2023-02-15T18:01:24;11.93;;;5.82;;
44430;SDS011;30135;47.866;-4.222;2023-02-15T18:04:12;19.98;;;5.57;;
44430;SDS011;30135;47.866;-4.222;2023-02-15T18:06:58;19.90;;;6.37;;
44430;SDS011;30135;47.866;-4.222;2023-02-15T18:09:43;17.30;;;6.38;;
44430;SDS011;30135;47.866;-4.222;2023-02-15T18:12:32;14.15;;;6.35;;
44430;SDS011;30135;47.866;-4.222;2023-02-15T18:15:03;13.02;;;5.80;;
44430;SDS011;30135;47.866;-4.222;2023-02-15T18:17:36;19.02;;;8.35;;
44430;SDS011;30135;47.866;-4.222;2023-02-15T18:20:06;26.65;;;10.10;;
44430;SDS011;30135;47.866;-4.222;2023-02-15T18:23:00;18.38;;;9.88;;
44430;SDS011;30135;47.866;-4.222;2023-02-15T18:25:27;23.95;;;9.65;;
44430;SDS011;30135;47.866;-4.222;2023-02-15T18:27:53;23.13;;;10.95;;
44430;SDS011;30135;47.866;-4.222;2023-02-15T18:30:21;25.08;;;10.00;;
44430;SDS011;30135;47.866;-4.222;2023-02-15T18:32:49;23.70;;;10.02;;
44430;SDS011;30135;47.866;-4.222;2023-02-15T18:35:19;23.17;;;10.18;;
44430;SDS011;30135;47.866;-4.222;2023-02-15T18:40:15;26.65;;;10.32;;
44430;SDS011;30135;47.866;-4.222;2023-02-15T18:42:44;20.20;;;9.90;;
44430;SDS011;30135;47.866;-4.222;2023-02-15T18:47:44;33.85;;;11.23;;
44430;SDS011;30135;47.866;-4.222;2023-02-15T18:50:12;27.58;;;11.43;;